Main page
METAR-TAF:

METAR-TAF

Airports :

Djerba–Zarzis International Airport

Djerba, Tunisia

latitude: 33-52N, longitude: 010-46E, elevation: 3 m

Current weather observation

The report was made 24 minutes ago, at 06:30 UTC
Wind 4 kt from the South, varying between South/Southeast and South/Southwest
Temperature 10°C
Humidity 87%
Pressure 1015 hPa
Visibility: 8000 m

METAR: DTTJ 080630Z 17004KT 150V210 8000 NSC 10/08 Q1015 NOSIG

Time: 07:54 (06:54 UTC)

Forecast

The report was made 19 minutes ago, at 06:35 UTC
Forecast valid from 08 at 06 UTC to 09 at 06 UTC
Wind 6 kt from the South/Southwest
Visibility: 8000 m

TAF: DTTJ 080635Z 0806/0906 20006KT 8000 NSC

Weather observations and forecasts of more than 4000 airports (METAR and TAF reports).

The available stations are represented by yellow and red dots on the map.

Hover mouse over dot to see the name of the station.

Then click to see weather observations and forecasts.

To change the map : click on the green buttons with a black cross to zoom in, on the green button with a dash to zoom out, or on the green arrows for adjacent maps.


METAR-TAF: